Time;durP1;ratioP1;P1;durP2;ratioP2;P2;SDS_P1;SDS_P2;PMS_P1;PMS_P2;Temp;Humidity;BMP_temperature;BMP_pressure;BME280_temperature;BME280_humidity;BME280_pressure;Samples;Min_cycle;Max_cycle;Signal;HPM_P1;HPM_P2
2023/11/04 00:00:55;;;;;;;18.70;14.80;;;;;;;11.08;89.22;99468.19;108109;1260;71460;-68
2023/11/04 00:03:42;;;;;;;15.70;13.50;;;;;;;11.13;89.51;99458.88;108181;1252;60469;-66
2023/11/04 00:06:10;;;;;;;16.20;12.50;;;;;;;11.15;89.75;99452.16;108220;1254;60319;-69
2023/11/04 00:08:39;;;;;;;15.30;13.30;;;;;;;11.16;89.87;99454.83;108182;1255;73728;-66
2023/11/04 00:11:07;;;;;;;16.90;12.80;;;;;;;11.18;90.10;99431.39;108176;1255;71619;-68
2023/11/04 00:13:36;;;;;;;16.10;12.60;;;;;;;11.19;90.23;99426.67;108121;1254;71647;-66
2023/11/04 00:16:08;;;;;;;15.20;12.60;;;;;;;11.19;90.36;99422.13;108154;1254;60539;-66
2023/11/04 00:18:37;;;;;;;15.50;12.40;;;;;;;11.20;90.54;99419.42;108175;1254;60266;-66
2023/11/04 00:21:07;;;;;;;15.60;12.10;;;;;;;11.22;90.65;99423.58;108189;1254;72787;-66
2023/11/04 00:23:35;;;;;;;14.00;11.50;;;;;;;11.23;90.72;99418.05;108301;1254;72722;-67
2023/11/04 00:26:03;;;;;;;14.20;12.10;;;;;;;11.26;90.88;99416.78;108173;1253;72779;-67
2023/11/04 00:28:33;;;;;;;16.00;12.60;;;;;;;11.29;90.98;99405.52;108270;1255;61669;-68
2023/11/04 00:31:01;;;;;;;11.60;9.80;;;;;;;11.33;91.11;99399.31;108126;1253;60358;-66
2023/11/04 00:33:29;;;;;;;14.50;11.70;;;;;;;11.35;91.19;99399.61;108116;1253;72000;-66
2023/11/04 00:35:57;;;;;;;14.80;11.90;;;;;;;11.35;91.24;99397.09;108115;1255;71595;-69
2023/11/04 00:38:24;;;;;;;13.10;11.30;;;;;;;11.35;91.27;99396.34;108113;1255;75000;-67
2023/11/04 00:40:52;;;;;;;15.90;13.00;;;;;;;11.37;91.44;99385.98;108176;1254;62686;-68
2023/11/04 00:43:19;;;;;;;13.90;11.80;;;;;;;11.40;91.45;99392.09;108064;1253;60175;-66
2023/11/04 00:45:47;;;;;;;13.80;11.70;;;;;;;11.42;91.65;99400.41;108081;1255;75399;-66
2023/11/04 00:48:15;;;;;;;13.30;11.90;;;;;;;11.43;91.62;99401.63;108129;1254;72479;-67
2023/11/04 00:50:42;;;;;;;14.70;11.80;;;;;;;11.43;91.65;99406.21;108108;1255;71414;-66
2023/11/04 00:53:10;;;;;;;14.70;12.50;;;;;;;11.45;91.59;99404.27;108053;1254;61662;-66
2023/11/04 00:55:38;;;;;;;14.10;12.10;;;;;;;11.47;91.67;99405.30;108140;1255;60020;-67
2023/11/04 00:58:06;;;;;;;15.00;13.30;;;;;;;11.50;91.95;99401.06;108335;1252;72583;-67
2023/11/04 01:00:35;;;;;;;14.60;12.40;;;;;;;11.55;91.94;99393.80;108152;1254;72683;-66
2023/11/04 01:03:02;;;;;;;15.50;13.40;;;;;;;11.58;92.05;99391.61;108147;1254;71812;-67
2023/11/04 01:05:30;;;;;;;15.60;13.20;;;;;;;11.60;92.09;99384.52;108170;1252;60424;-68
2023/11/04 01:07:59;;;;;;;15.90;13.50;;;;;;;11.62;92.03;99376.83;108206;1258;59210;-66
2023/11/04 01:10:26;;;;;;;16.10;13.90;;;;;;;11.63;92.10;99366.21;108039;1254;72921;-67
2023/11/04 01:12:54;;;;;;;14.30;12.60;;;;;;;11.64;92.06;99363.38;108158;1255;71134;-68
2023/11/04 01:15:22;;;;;;;14.50;12.80;;;;;;;11.67;92.08;99373.75;108154;1254;72655;-67
2023/11/04 01:17:50;;;;;;;15.40;13.80;;;;;;;11.67;92.07;99361.77;108226;1252;61860;-68
2023/11/04 01:20:17;;;;;;;15.70;13.80;;;;;;;11.68;92.17;99355.98;108191;1252;60793;-67
2023/11/04 01:22:45;;;;;;;16.20;13.00;;;;;;;11.70;92.19;99351.50;108199;1254;74082;-68
2023/11/04 01:25:13;;;;;;;14.90;13.30;;;;;;;11.71;92.25;99353.58;108426;1254;72530;-67
2023/11/04 01:27:41;;;;;;;14.30;12.40;;;;;;;11.75;92.28;99358.02;108230;1254;72942;-66
2023/11/04 01:30:10;;;;;;;15.90;12.40;;;;;;;11.79;92.30;99372.39;108200;1254;60437;-66
2023/11/04 01:32:37;;;;;;;16.40;13.50;;;;;;;11.82;92.22;99378.05;108214;1254;60352;-66
2023/11/04 01:35:07;;;;;;;14.00;12.20;;;;;;;11.84;92.13;99380.48;108079;1253;72563;-66
2023/11/04 01:37:35;;;;;;;15.10;12.60;;;;;;;11.87;92.23;99385.17;108184;1255;72695;-67
2023/11/04 01:40:07;;;;;;;14.70;12.40;;;;;;;11.89;92.24;99399.16;108089;1254;72720;-66
2023/11/04 01:42:35;;;;;;;15.60;13.10;;;;;;;11.91;92.19;99404.15;108095;1256;61663;-66
2023/11/04 01:45:04;;;;;;;15.10;12.90;;;;;;;11.94;92.29;99404.80;108046;1252;60325;-66
2023/11/04 01:47:31;;;;;;;14.80;12.70;;;;;;;11.97;92.25;99410.64;108142;1255;73067;-69
2023/11/04 01:49:59;;;;;;;15.10;11.90;;;;;;;12.01;92.20;99404.89;108124;1255;72936;-65
2023/11/04 01:52:27;;;;;;;15.80;12.90;;;;;;;12.03;92.07;99390.77;108146;1257;71228;-66
2023/11/04 01:54:54;;;;;;;15.50;12.90;;;;;;;12.05;92.07;99374.95;108194;1253;61684;-68
2023/11/04 01:57:22;;;;;;;15.80;12.90;;;;;;;12.04;91.92;99366.04;108151;1253;60476;-65
2023/11/04 01:59:49;;;;;;;18.10;14.40;;;;;;;12.01;91.97;99368.33;108107;1253;72854;-67
2023/11/04 02:02:18;;;;;;;14.80;12.10;;;;;;;12.02;92.00;99373.05;108047;1255;72019;-68
2023/11/04 02:04:45;;;;;;;14.40;12.60;;;;;;;12.03;92.00;99385.36;108153;1255;71048;-67
2023/11/04 02:07:13;;;;;;;15.10;12.70;;;;;;;12.06;91.98;99403.31;108129;1254;60934;-66
2023/11/04 02:09:41;;;;;;;15.00;12.90;;;;;;;12.08;91.85;99415.09;109071;1254;58730;-67
2023/11/04 02:12:09;;;;;;;15.70;13.10;;;;;;;12.11;91.89;99426.93;108260;1254;73806;-68
2023/11/04 02:14:45;;;;;;;15.70;13.10;;;;;;;12.14;91.79;99437.69;108157;1255;71345;-67
2023/11/04 02:17:13;;;;;;;15.40;13.40;;;;;;;12.19;91.94;99444.98;108076;1254;71298;-67
2023/11/04 02:19:41;;;;;;;14.90;12.60;;;;;;;12.21;91.75;99448.11;108120;1255;60743;-66
2023/11/04 02:22:09;;;;;;;17.30;13.70;;;;;;;12.24;91.80;99443.24;108106;1255;60421;-67
2023/11/04 02:24:36;;;;;;;16.60;13.20;;;;;;;12.26;91.65;99438.38;108118;1255;72648;-66
2023/11/04 02:27:04;;;;;;;15.20;12.80;;;;;;;12.28;91.62;99429.36;108248;1256;72446;-68
2023/11/04 02:29:32;;;;;;;15.60;13.20;;;;;;;12.29;91.60;99424.02;108160;1254;72670;-67
2023/11/04 02:31:59;;;;;;;16.30;13.50;;;;;;;12.31;91.64;99421.69;108115;1254;61771;-66
2023/11/04 02:34:27;;;;;;;15.50;12.50;;;;;;;12.34;91.48;99429.82;108116;1255;60373;-66
2023/11/04 02:36:55;;;;;;;16.50;13.60;;;;;;;12.37;91.51;99423.46;108172;1254;72633;-66
2023/11/04 02:39:23;;;;;;;15.20;12.90;;;;;;;12.38;91.32;99418.95;108240;1255;72724;-66
2023/11/04 02:41:51;;;;;;;16.30;13.10;;;;;;;12.38;91.31;99425.59;108256;1258;72710;-66
2023/11/04 02:44:18;;;;;;;15.50;13.30;;;;;;;12.40;91.39;99436.36;108255;1254;60408;-66
2023/11/04 02:46:46;;;;;;;15.80;13.70;;;;;;;12.43;91.45;99443.70;108162;1254;60343;-66
2023/11/04 02:49:13;;;;;;;15.00;12.90;;;;;;;12.46;91.39;99449.77;108168;1254;73780;-67
2023/11/04 02:51:41;;;;;;;16.60;13.20;;;;;;;12.50;91.27;99451.41;108252;1255;72763;-67
2023/11/04 02:54:08;;;;;;;14.80;12.70;;;;;;;12.51;91.16;99447.05;108230;1254;71367;-68
2023/11/04 02:56:36;;;;;;;14.50;12.80;;;;;;;12.55;91.14;99446.33;108234;1257;60601;-70
2023/11/04 02:59:04;;;;;;;18.70;13.70;;;;;;;12.58;91.16;99444.13;108281;1254;60174;-68
2023/11/04 03:01:31;;;;;;;18.20;13.90;;;;;;;12.58;90.92;99449.27;108209;1258;72545;-66
2023/11/04 03:04:02;;;;;;;15.10;13.00;;;;;;;12.60;91.00;99456.45;108252;1254;72783;-66
2023/11/04 03:06:30;;;;;;;15.80;13.70;;;;;;;12.63;90.94;99455.70;108185;1254;71386;-67
2023/11/04 03:08:57;;;;;;;17.70;14.00;;;;;;;12.66;90.82;99453.62;108180;1257;61680;-67
2023/11/04 03:11:25;;;;;;;15.90;13.20;;;;;;;12.68;90.77;99444.32;108152;1253;60337;-67
2023/11/04 03:13:54;;;;;;;16.80;14.10;;;;;;;12.68;90.54;99428.34;108210;1254;72670;-69
2023/11/04 03:16:22;;;;;;;18.00;14.10;;;;;;;12.66;90.58;99424.40;108479;1254;71695;-67
2023/11/04 03:18:50;;;;;;;18.10;14.50;;;;;;;12.62;90.47;99421.42;108085;1253;72675;-66
2023/11/04 03:21:17;;;;;;;19.50;15.10;;;;;;;12.61;90.46;99419.44;108426;1254;60403;-66
2023/11/04 03:23:45;;;;;;;18.80;15.00;;;;;;;12.61;90.78;99412.95;108313;1257;60290;-67
2023/11/04 03:26:13;;;;;;;22.50;16.40;;;;;;;12.63;90.76;99406.36;108146;1255;73902;-67
2023/11/04 03:28:41;;;;;;;22.20;16.40;;;;;;;12.62;90.84;99405.11;108201;1253;72816;-66
2023/11/04 03:31:08;;;;;;;22.90;16.40;;;;;;;12.60;91.04;99416.05;108176;1257;72934;-67
2023/11/04 03:33:37;;;;;;;21.00;16.20;;;;;;;12.61;91.21;99418.39;108240;1255;61926;-68
2023/11/04 03:36:06;;;;;;;23.40;16.50;;;;;;;12.62;91.24;99418.59;108176;1252;60289;-66
2023/11/04 03:38:34;;;;;;;20.30;15.30;;;;;;;12.63;91.54;99416.23;108408;1253;72553;-67
2023/11/04 03:41:03;;;;;;;22.40;17.10;;;;;;;12.67;91.59;99409.34;108328;1254;71570;-72
2023/11/04 03:43:31;;;;;;;22.70;16.80;;;;;;;12.66;91.70;99403.61;108138;1253;72810;-68
2023/11/04 03:45:59;;;;;;;24.50;17.60;;;;;;;12.67;91.89;99397.12;108180;1254;63823;-67
2023/11/04 03:48:30;;;;;;;21.80;16.40;;;;;;;12.67;92.11;99395.69;108217;1253;59654;-68
2023/11/04 03:50:59;;;;;;;22.10;15.90;;;;;;;12.68;92.27;99392.35;108128;1254;73075;-66
2023/11/04 03:53:26;;;;;;;21.80;15.80;;;;;;;12.68;92.46;99390.94;108157;1254;72866;-67
2023/11/04 03:55:55;;;;;;;22.80;16.20;;;;;;;12.68;92.58;99385.48;108496;1257;71381;-67
2023/11/04 03:58:28;;;;;;;21.50;16.40;;;;;;;12.68;92.77;99384.84;108229;1254;60397;-69
2023/11/04 04:00:56;;;;;;;22.40;16.90;;;;;;;12.65;92.88;99385.27;108182;1254;60355;-69
2023/11/04 04:03:24;;;;;;;23.30;17.00;;;;;;;12.62;92.95;99383.02;108289;1255;73855;-68
2023/11/04 04:05:51;;;;;;;24.50;17.30;;;;;;;12.59;93.23;99372.52;108195;1257;71403;-68
2023/11/04 04:08:19;;;;;;;24.80;17.10;;;;;;;12.59;93.41;99364.16;108200;1252;71636;-68
2023/11/04 04:10:47;;;;;;;23.40;16.60;;;;;;;12.57;93.65;99365.23;108168;1254;60394;-69
2023/11/04 04:13:14;;;;;;;22.60;16.80;;;;;;;12.55;94.00;99368.81;108160;1253;60710;-68
2023/11/04 04:15:42;;;;;;;22.60;16.10;;;;;;;12.55;94.27;99371.91;108295;1253;72365;-68
2023/11/04 04:18:27;;;;;;;25.10;17.50;;;;;;;12.55;94.61;99374.96;108108;1258;73102;-68
2023/11/04 04:21:00;;;;;;;23.00;17.50;;;;;;;12.57;94.88;99371.07;108090;1255;72727;-68
2023/11/04 04:23:27;;;;;;;22.80;17.30;;;;;;;12.58;95.02;99366.34;108270;1254;61743;-68
2023/11/04 04:26:09;;;;;;;22.70;16.50;;;;;;;12.58;95.12;99368.10;108302;1254;61012;-68
2023/11/04 04:28:37;;;;;;;23.80;16.20;;;;;;;12.58;95.50;99374.27;108260;1254;72609;-68
2023/11/04 04:31:05;;;;;;;24.00;17.10;;;;;;;12.57;95.63;99376.27;108149;1254;72710;-68
2023/11/04 04:33:33;;;;;;;24.30;17.00;;;;;;;12.57;95.89;99376.16;108214;1254;72420;-68
2023/11/04 04:36:03;;;;;;;23.20;17.00;;;;;;;12.57;96.01;99380.77;108242;1254;63986;-68
2023/11/04 04:38:31;;;;;;;19.80;14.40;;;;;;;12.56;96.21;99381.91;108077;1254;59247;-68
2023/11/04 04:40:59;;;;;;;26.50;18.00;;;;;;;12.56;96.44;99379.76;108196;1254;73855;-68
2023/11/04 04:43:27;;;;;;;19.90;14.50;;;;;;;12.58;96.67;99380.39;108134;1254;72526;-68
2023/11/04 04:45:54;;;;;;;21.70;15.70;;;;;;;12.59;96.96;99379.70;108237;1254;72606;-67
2023/11/04 04:48:22;;;;;;;20.50;15.10;;;;;;;12.60;96.98;99378.13;108167;1254;60687;-68
2023/11/04 04:50:50;;;;;;;23.80;17.20;;;;;;;12.59;97.18;99382.69;108171;1253;60290;-68
2023/11/04 04:53:17;;;;;;;22.80;16.60;;;;;;;12.63;97.30;99378.51;108134;1252;72971;-68
2023/11/04 04:55:45;;;;;;;21.10;15.50;;;;;;;12.63;97.40;99370.46;108187;1254;72734;-68
2023/11/04 04:58:13;;;;;;;21.40;15.10;;;;;;;12.61;97.43;99363.00;108185;1254;71373;-67
2023/11/04 05:00:40;;;;;;;21.40;15.80;;;;;;;12.59;97.63;99361.33;108192;1252;61740;-68
2023/11/04 05:03:08;;;;;;;22.90;17.50;;;;;;;12.57;97.77;99364.64;108206;1257;60524;-68
2023/11/04 05:05:36;;;;;;;24.20;16.70;;;;;;;12.56;98.11;99367.49;108148;1252;72596;-67
2023/11/04 05:08:04;;;;;;;21.20;14.90;;;;;;;12.55;98.44;99366.55;108180;1254;70585;-67
2023/11/04 05:10:31;;;;;;;24.50;17.60;;;;;;;12.55;98.64;99374.96;108037;1254;71463;-68
2023/11/04 05:12:59;;;;;;;26.60;18.20;;;;;;;12.56;99.02;99382.94;108190;1254;61669;-68
2023/11/04 05:15:26;;;;;;;22.20;16.40;;;;;;;12.59;99.37;99378.27;108208;1254;60323;-69
2023/11/04 05:17:54;;;;;;;22.10;16.20;;;;;;;12.62;99.60;99371.54;108183;1254;74335;-69
2023/11/04 05:20:22;;;;;;;23.20;16.50;;;;;;;12.63;99.76;99375.02;108183;1254;72719;-69
2023/11/04 05:22:50;;;;;;;28.90;17.60;;;;;;;12.65;99.97;99380.23;108182;1254;71424;-70
2023/11/04 05:25:17;;;;;;;24.50;16.60;;;;;;;12.65;100.00;99386.39;108453;1254;59840;-68
2023/11/04 05:27:45;;;;;;;20.80;16.20;;;;;;;12.68;100.00;99391.81;108163;1253;60049;-69
2023/11/04 05:30:14;;;;;;;22.20;15.20;;;;;;;12.73;100.00;99391.95;108221;1254;73853;-69
2023/11/04 05:32:41;;;;;;;20.50;14.70;;;;;;;12.81;100.00;99389.82;108163;1254;72756;-69
2023/11/04 05:35:09;;;;;;;20.90;15.60;;;;;;;12.79;100.00;99391.27;108149;1254;72656;-70
2023/11/04 05:37:37;;;;;;;22.80;15.90;;;;;;;12.82;100.00;99389.48;108188;1253;60494;-67
2023/11/04 05:40:07;;;;;;;20.40;14.40;;;;;;;12.86;100.00;99394.69;108133;1257;60433;-69
2023/11/04 05:42:34;;;;;;;21.00;15.00;;;;;;;12.89;100.00;99395.02;108160;1254;73847;-69
2023/11/04 05:45:02;;;;;;;19.80;14.30;;;;;;;12.91;100.00;99390.69;108211;1254;72916;-67
2023/11/04 05:47:32;;;;;;;21.80;14.50;;;;;;;12.94;100.00;99390.67;108138;1254;72743;-67
2023/11/04 05:50:01;;;;;;;18.10;14.10;;;;;;;12.97;100.00;99390.17;108189;1254;60701;-68
2023/11/04 05:52:29;;;;;;;18.00;13.40;;;;;;;13.01;100.00;99388.65;108175;1254;60313;-68
2023/11/04 05:54:56;;;;;;;18.70;13.70;;;;;;;13.04;100.00;99391.37;108051;1252;73928;-69
2023/11/04 05:57:24;;;;;;;18.80;14.60;;;;;;;13.08;100.00;99391.21;108165;1254;71434;-69
2023/11/04 05:59:51;;;;;;;19.50;13.20;;;;;;;13.12;100.00;99390.86;108154;1254;71471;-69
2023/11/04 06:02:19;;;;;;;16.20;12.50;;;;;;;13.14;100.00;99384.44;108171;1257;60882;-69
2023/11/04 06:04:47;;;;;;;16.60;12.40;;;;;;;13.17;100.00;99383.52;108173;1254;60817;-70
2023/11/04 06:07:14;;;;;;;18.20;13.40;;;;;;;13.20;100.00;99385.02;108302;1253;71632;-69
2023/11/04 06:09:43;;;;;;;16.10;11.70;;;;;;;13.23;100.00;99380.38;108221;1254;72751;-68
2023/11/04 06:12:11;;;;;;;17.40;13.30;;;;;;;13.26;100.00;99383.33;108157;1257;72522;-69
2023/11/04 06:14:39;;;;;;;15.90;12.80;;;;;;;13.29;100.00;99387.55;108123;1254;62304;-69
2023/11/04 06:17:07;;;;;;;17.10;12.70;;;;;;;13.33;100.00;99391.88;108249;1253;62155;-69
2023/11/04 06:19:35;;;;;;;17.10;12.50;;;;;;;13.35;100.00;99394.45;108176;1254;73921;-68
2023/11/04 06:22:02;;;;;;;16.60;13.00;;;;;;;13.36;100.00;99392.60;108119;1254;72890;-69
2023/11/04 06:24:30;;;;;;;18.70;13.90;;;;;;;13.37;100.00;99388.35;108146;1254;72955;-69
2023/11/04 06:26:58;;;;;;;18.60;13.30;;;;;;;13.40;100.00;99379.66;108174;1257;60853;-68
2023/11/04 06:29:26;;;;;;;18.80;12.70;;;;;;;13.44;100.00;99378.55;108155;1255;60508;-69
2023/11/04 06:31:54;;;;;;;17.20;12.70;;;;;;;13.46;100.00;99370.98;108223;1252;72278;-70
2023/11/04 06:34:21;;;;;;;17.20;13.30;;;;;;;13.49;100.00;99385.71;108196;1253;72799;-68
2023/11/04 06:36:51;;;;;;;16.50;12.40;;;;;;;13.49;100.00;99387.27;108123;1254;72439;-69
2023/11/04 06:39:19;;;;;;;17.70;12.40;;;;;;;13.50;100.00;99391.92;108218;1254;60363;-69
2023/11/04 06:41:47;;;;;;;17.20;13.30;;;;;;;13.53;100.00;99397.33;108135;1254;59591;-71
2023/11/04 06:44:16;;;;;;;18.60;13.20;;;;;;;13.55;100.00;99387.23;108209;1254;73671;-70
2023/11/04 06:46:52;;;;;;;16.40;12.40;;;;;;;13.57;100.00;99385.40;108216;1254;72040;-70
2023/11/04 06:49:20;;;;;;;16.50;12.40;;;;;;;13.58;100.00;99375.14;108247;1255;73170;-70
2023/11/04 06:51:48;;;;;;;16.70;12.40;;;;;;;13.60;100.00;99376.77;108188;1254;61653;-70
2023/11/04 06:54:16;;;;;;;15.10;11.70;;;;;;;13.58;100.00;99385.95;108191;1254;60347;-69
2023/11/04 06:56:43;;;;;;;17.30;12.70;;;;;;;13.60;100.00;99390.73;108229;1253;73834;-70
2023/11/04 06:59:11;;;;;;;17.90;12.70;;;;;;;13.64;100.00;99380.41;108166;1254;71700;-70
2023/11/04 07:01:39;;;;;;;13.90;11.20;;;;;;;13.66;100.00;99369.41;108178;1254;72727;-70
2023/11/04 07:04:07;;;;;;;16.00;12.60;;;;;;;13.70;100.00;99378.88;108199;1254;60621;-70
2023/11/04 07:06:34;;;;;;;14.80;11.70;;;;;;;13.71;100.00;99385.17;108181;1254;60418;-71
2023/11/04 07:09:02;;;;;;;14.60;11.40;;;;;;;13.72;100.00;99397.11;108158;1254;73870;-72
2023/11/04 07:11:30;;;;;;;15.10;11.30;;;;;;;13.75;100.00;99396.62;108279;1254;72687;-70
2023/11/04 07:13:58;;;;;;;15.00;11.80;;;;;;;13.78;100.00;99395.46;108144;1259;72917;-71
2023/11/04 07:16:25;;;;;;;14.10;11.10;;;;;;;13.79;100.00;99391.92;108169;1254;61730;-69
2023/11/04 07:18:53;;;;;;;14.00;10.90;;;;;;;13.80;100.00;99380.65;108309;1251;60533;-69
2023/11/04 07:21:21;;;;;;;16.00;11.80;;;;;;;13.82;100.00;99370.85;108350;1251;73858;-70
2023/11/04 07:23:48;;;;;;;13.60;11.00;;;;;;;13.83;100.00;99376.57;108337;1251;72590;-71
2023/11/04 07:26:16;;;;;;;14.00;10.90;;;;;;;13.82;100.00;99372.34;108321;1251;71434;-69
2023/11/04 07:28:44;;;;;;;13.50;10.90;;;;;;;13.85;100.00;99373.81;108346;1254;60747;-71
2023/11/04 07:31:14;;;;;;;14.70;11.60;;;;;;;13.88;100.00;99373.96;108445;1251;60470;-70
2023/11/04 07:33:42;;;;;;;14.70;11.30;;;;;;;13.91;100.00;99374.64;108329;1251;73883;-72
2023/11/04 07:36:10;;;;;;;15.30;12.20;;;;;;;13.92;100.00;99375.48;108359;1251;71632;-71
2023/11/04 07:38:37;;;;;;;15.40;11.80;;;;;;;13.94;100.00;99371.06;108275;1254;72663;-71
2023/11/04 07:41:05;;;;;;;14.70;11.60;;;;;;;13.98;100.00;99375.00;108356;1251;61965;-71
2023/11/04 07:43:33;;;;;;;15.60;11.80;;;;;;;14.01;100.00;99385.66;108295;1251;60435;-71
2023/11/04 07:46:01;;;;;;;16.30;12.40;;;;;;;14.05;100.00;99389.70;108225;1254;72691;-71
2023/11/04 07:48:29;;;;;;;13.50;11.30;;;;;;;14.08;100.00;99374.73;108182;1254;71654;-72
2023/11/04 07:50:57;;;;;;;15.60;12.00;;;;;;;14.12;100.00;99368.75;108187;1251;70355;-71
2023/11/04 07:53:25;;;;;;;15.20;11.80;;;;;;;14.12;100.00;99370.46;108288;1251;62558;-71
2023/11/04 07:55:53;;;;;;;16.80;13.10;;;;;;;14.15;100.00;99372.15;108334;1251;60342;-72
2023/11/04 07:58:21;;;;;;;14.00;11.40;;;;;;;14.17;100.00;99373.54;108308;1256;73074;-72
2023/11/04 08:00:53;;;;;;;15.90;12.10;;;;;;;14.17;100.00;99367.88;108299;1251;71832;-70
2023/11/04 08:03:22;;;;;;;15.50;12.70;;;;;;;14.14;100.00;99364.90;108273;1254;72670;-71
2023/11/04 08:05:51;;;;;;;16.10;12.40;;;;;;;14.17;100.00;99364.61;108299;1254;60464;-70
2023/11/04 08:08:20;;;;;;;16.00;12.00;;;;;;;14.16;100.00;99358.26;108341;1251;60408;-72
2023/11/04 08:10:48;;;;;;;15.20;12.40;;;;;;;14.18;100.00;99356.80;108339;1251;72539;-72
2023/11/04 08:13:16;;;;;;;16.60;13.00;;;;;;;14.18;100.00;99357.40;108257;1251;72681;-73
2023/11/04 08:15:44;;;;;;;15.10;12.50;;;;;;;14.18;100.00;99356.55;108344;1251;71789;-73
2023/11/04 08:18:11;;;;;;;16.40;13.00;;;;;;;14.35;100.00;99350.95;108275;1253;61702;-74
2023/11/04 08:20:39;;;;;;;17.60;12.80;;;;;;;14.70;99.02;99346.94;108325;1254;60512;-73
2023/11/04 08:23:07;;;;;;;15.80;12.70;;;;;;;14.76;98.12;99341.98;108342;1251;73878;-73
2023/11/04 08:25:36;;;;;;;18.20;13.60;;;;;;;14.81;97.65;99350.20;108313;1251;73719;-72
2023/11/04 08:28:03;;;;;;;17.50;13.40;;;;;;;14.85;97.48;99355.00;108249;1251;71463;-71
2023/11/04 08:30:31;;;;;;;17.10;13.00;;;;;;;14.87;97.80;99360.11;108216;1253;60754;-71
2023/11/04 08:32:59;;;;;;;18.30;13.90;;;;;;;14.92;97.85;99361.83;108294;1251;60284;-71
2023/11/04 08:35:26;;;;;;;17.30;13.60;;;;;;;14.97;97.89;99360.60;108314;1251;72564;-73
2023/11/04 08:37:54;;;;;;;17.70;13.90;;;;;;;15.02;97.52;99361.67;108334;1251;71639;-71
2023/11/04 08:40:22;;;;;;;17.40;13.40;;;;;;;15.08;97.47;99349.79;108206;1251;71165;-72
2023/11/04 08:42:52;;;;;;;18.20;14.00;;;;;;;15.20;96.56;99341.94;108064;1252;60726;-72
2023/11/04 08:45:20;;;;;;;16.40;13.60;;;;;;;15.21;95.85;99341.79;108141;1252;60379;-72
2023/11/04 08:47:48;;;;;;;18.00;13.50;;;;;;;15.20;95.61;99340.52;108256;1251;72667;-72
2023/11/04 08:50:16;;;;;;;17.40;14.00;;;;;;;15.22;95.54;99346.27;93131;1251;10002300;-72
2023/11/04 08:52:43;;;;;;;18.50;14.30;;;;;;;15.21;95.58;99337.41;108588;1254;71502;-72
2023/11/04 08:55:11;;;;;;;19.50;14.80;;;;;;;15.29;95.36;99329.17;108236;1251;72690;-71
2023/11/04 08:57:38;;;;;;;18.10;13.40;;;;;;;15.29;94.83;99319.73;108965;1251;61669;-72
2023/11/04 09:00:08;;;;;;;19.70;15.60;;;;;;;15.27;94.75;99318.11;108461;1251;60369;-69
2023/11/04 09:02:36;;;;;;;19.30;15.30;;;;;;;15.22;94.34;99317.54;108737;1251;73832;-72
2023/11/04 09:05:08;;;;;;;18.80;14.60;;;;;;;15.23;94.23;99320.27;107999;1254;71459;-73
2023/11/04 09:07:44;;;;;;;18.70;14.30;;;;;;;15.24;94.22;99321.75;107972;1254;71263;-72
2023/11/04 09:10:12;;;;;;;19.00;14.10;;;;;;;15.26;94.31;99318.45;108229;1251;60515;-72
2023/11/04 09:12:39;;;;;;;22.10;14.50;;;;;;;15.25;94.03;99313.27;108595;1254;59836;-70
2023/11/04 09:15:10;;;;;;;20.50;14.30;;;;;;;15.20;93.93;99306.21;108365;1253;72686;-69
2023/11/04 09:17:38;;;;;;;17.10;14.10;;;;;;;15.16;94.14;99299.73;108203;1253;72300;-69
2023/11/04 09:20:07;;;;;;;17.40;14.10;;;;;;;15.14;94.28;99296.89;108028;1254;71239;-70
2023/11/04 09:22:35;;;;;;;20.10;14.70;;;;;;;15.14;94.52;99291.35;108292;1253;61654;-69
2023/11/04 09:25:03;;;;;;;18.10;15.10;;;;;;;15.16;94.64;99290.14;108574;1251;60488;-70
2023/11/04 09:27:31;;;;;;;19.20;14.40;;;;;;;15.18;94.61;99282.14;108010;1254;72256;-71
2023/11/04 09:29:58;;;;;;;18.90;14.10;;;;;;;15.16;94.74;99276.85;108146;1256;71395;-70
2023/11/04 09:32:26;;;;;;;20.90;15.30;;;;;;;15.18;94.93;99265.02;108309;1251;72647;-70
2023/11/04 09:34:54;;;;;;;22.60;16.00;;;;;;;15.20;95.07;99257.14;108165;1253;60814;-70
2023/11/04 09:37:22;;;;;;;21.10;15.40;;;;;;;15.23;95.36;99258.64;108082;1251;60452;-71
2023/11/04 09:39:49;;;;;;;21.90;15.20;;;;;;;15.27;95.50;99261.70;108030;1254;72544;-70
2023/11/04 09:42:17;;;;;;;21.80;16.50;;;;;;;15.30;95.72;99256.77;108048;1254;72699;-71
2023/11/04 09:44:45;;;;;;;22.10;15.60;;;;;;;15.32;95.87;99254.61;108362;1253;73180;-71
2023/11/04 09:47:13;;;;;;;24.60;16.90;;;;;;;15.36;95.88;99246.89;108189;1251;61670;-70
2023/11/04 09:49:40;;;;;;;23.80;16.70;;;;;;;15.39;96.10;99239.61;108122;1251;60860;-71
2023/11/04 09:52:10;;;;;;;25.70;17.30;;;;;;;15.42;96.59;99233.91;108148;1251;73048;-70
2023/11/04 09:54:38;;;;;;;24.80;16.70;;;;;;;15.46;96.71;99226.30;108109;1254;73137;-70
2023/11/04 09:57:06;;;;;;;23.10;16.60;;;;;;;15.53;96.65;99222.36;108171;1253;71457;-70
2023/11/04 09:59:34;;;;;;;23.00;16.10;;;;;;;15.59;96.63;99225.23;108372;1251;61054;-70
2023/11/04 10:02:01;;;;;;;20.60;16.10;;;;;;;15.61;96.77;99215.55;108238;1251;257770;-69
2023/11/04 10:04:29;;;;;;;20.30;15.00;;;;;;;15.63;96.37;99207.15;108038;1251;73913;-70
2023/11/04 10:06:57;;;;;;;24.90;17.30;;;;;;;15.51;96.94;99204.73;108107;1251;71217;-71
2023/11/04 10:09:24;;;;;;;22.00;15.40;;;;;;;15.48;97.48;99214.39;107999;1253;72651;-70
2023/11/04 10:11:54;;;;;;;22.40;15.80;;;;;;;15.50;97.56;99210.55;108132;1251;60491;-70
2023/11/04 10:14:39;;;;;;;25.80;16.80;;;;;;;15.53;97.49;99209.00;108244;1254;60551;-71
2023/11/04 10:17:17;;;;;;;23.30;16.10;;;;;;;15.59;97.76;99207.70;107970;1254;72800;-70
2023/11/04 10:19:50;;;;;;;21.20;15.40;;;;;;;15.63;97.76;99213.02;108794;1256;72806;-71
2023/11/04 10:22:18;;;;;;;18.50;14.30;;;;;;;15.66;97.81;99214.16;108355;1251;71502;-70
2023/11/04 10:24:46;;;;;;;20.30;14.90;;;;;;;15.72;98.00;99208.41;108584;1253;62476;-71
2023/11/04 10:27:14;;;;;;;21.10;14.50;;;;;;;15.83;97.91;99208.83;108072;1254;59932;-69
2023/11/04 10:29:41;;;;;;;19.20;14.60;;;;;;;15.88;97.38;99203.00;108059;1252;73226;-70
2023/11/04 10:32:10;;;;;;;18.70;13.90;;;;;;;15.92;97.26;99204.63;108237;1251;72825;-70
2023/11/04 10:34:40;;;;;;;16.80;12.80;;;;;;;15.95;97.05;99200.82;108103;1254;72122;-71
2023/11/04 10:37:11;;;;;;;17.90;13.20;;;;;;;15.89;97.02;99193.36;107988;1251;60417;-69
2023/11/04 10:39:43;;;;;;;16.60;12.80;;;;;;;15.92;96.81;99187.69;108119;1251;58997;-69
2023/11/04 10:42:12;;;;;;;17.30;13.60;;;;;;;15.94;96.77;99182.33;108090;1251;75335;-71
2023/11/04 10:44:43;;;;;;;16.70;13.40;;;;;;;15.93;96.65;99165.52;108138;1251;72626;-69
2023/11/04 10:47:23;;;;;;;18.40;13.40;;;;;;;15.91;96.48;99155.28;108049;1253;73047;-69
2023/11/04 10:49:54;;;;;;;17.90;13.20;;;;;;;15.88;96.58;99143.30;108115;1251;61785;-69
2023/11/04 10:52:24;;;;;;;18.80;14.80;;;;;;;15.89;96.53;99140.38;108093;1251;60363;-70
2023/11/04 10:55:08;;;;;;;19.90;13.90;;;;;;;15.91;96.66;99145.99;108032;1253;73952;-70
2023/11/04 10:57:37;;;;;;;21.00;13.90;;;;;;;15.99;96.69;99155.66;108045;1253;71471;-70
2023/11/04 11:00:06;;;;;;;19.10;14.40;;;;;;;16.03;96.83;99161.97;108081;1254;71204;-71
2023/11/04 11:02:36;;;;;;;18.40;14.30;;;;;;;16.06;96.85;99169.16;108143;1251;60870;-70
2023/11/04 11:05:04;;;;;;;19.00;13.80;;;;;;;16.09;96.81;99166.79;108122;1251;61977;-69
2023/11/04 11:07:35;;;;;;;20.80;15.00;;;;;;;16.12;96.85;99163.17;108003;1254;73809;-70
2023/11/04 11:10:03;;;;;;;18.20;14.30;;;;;;;16.15;96.84;99159.88;107885;1254;71594;-70
2023/11/04 11:12:32;;;;;;;18.80;14.30;;;;;;;16.17;96.64;99150.17;108072;1253;72727;-70